Time;durP1;ratioP1;P1;durP2;ratioP2;P2;SDS_P1;SDS_P2;PMS_P1;PMS_P2;Temp;Humidity;BMP_temperature;BMP_pressure;BME280_temperature;BME280_humidity;BME280_pressure;Samples;Min_cycle;Max_cycle;Signal;HPM_P1;HPM_P2
2024/01/23 00:01:59;;;;;;;0.20;0.20;;;6.90;99.90;;;;;;5030733;28;20481;-67
2024/01/23 00:04:25;;;;;;;0.28;0.28;;;6.90;99.90;;;;;;5023277;28;20041;-67
2024/01/23 00:06:50;;;;;;;0.10;0.10;;;6.90;99.90;;;;;;5025189;28;20046;-67
2024/01/23 00:09:16;;;;;;;0.10;0.10;;;7.00;99.90;;;;;;5022201;28;20037;-67
2024/01/23 00:11:41;;;;;;;2.70;1.20;;;7.00;99.90;;;;;;5024226;28;20486;-67
2024/01/23 00:14:07;;;;;;;2.22;2.10;;;7.00;99.90;;;;;;5027308;28;20073;-67
2024/01/23 00:16:32;;;;;;;0.40;0.40;;;7.00;99.90;;;;;;5021190;28;20041;-67
2024/01/23 00:18:58;;;;;;;3.40;2.28;;;7.00;99.90;;;;;;5022482;28;20045;-67
2024/01/23 00:21:23;;;;;;;0.10;0.10;;;7.00;99.90;;;;;;5028703;28;20181;-67
2024/01/23 00:23:49;;;;;;;7.22;1.48;;;7.00;99.90;;;;;;5025275;28;20045;-67
2024/01/23 00:26:15;;;;;;;0.00;0.00;;;7.00;99.90;;;;;;5020826;28;20045;-67
2024/01/23 00:28:40;;;;;;;0.80;0.80;;;7.00;99.90;;;;;;5028697;28;20053;-67
2024/01/23 00:31:06;;;;;;;0.10;0.10;;;7.10;99.90;;;;;;5023393;28;20073;-67
2024/01/23 00:33:31;;;;;;;0.50;0.50;;;7.10;99.90;;;;;;5024622;28;20049;-67
2024/01/23 00:35:57;;;;;;;0.95;0.60;;;7.10;99.90;;;;;;5027925;28;20041;-67
2024/01/23 00:38:22;;;;;;;0.63;0.63;;;7.00;99.90;;;;;;5027449;28;20041;-67
2024/01/23 00:40:48;;;;;;;0.45;0.45;;;7.00;99.90;;;;;;5018713;28;20052;-67
2024/01/23 00:43:14;;;;;;;3.72;0.75;;;7.00;99.90;;;;;;5030549;28;20459;-67
2024/01/23 00:45:39;;;;;;;0.10;0.10;;;7.00;99.90;;;;;;5026767;28;20481;-68
2024/01/23 00:48:05;;;;;;;3.95;2.60;;;6.90;99.90;;;;;;5021064;28;20091;-68
2024/01/23 00:50:31;;;;;;;6.93;0.90;;;6.90;99.90;;;;;;5028454;28;20079;-67
2024/01/23 00:52:57;;;;;;;0.32;0.32;;;6.90;99.90;;;;;;5028935;28;20049;-67
2024/01/23 00:55:22;;;;;;;2.13;2.00;;;6.80;99.90;;;;;;5021374;28;20040;-68
2024/01/23 00:57:48;;;;;;;1.00;1.00;;;6.90;99.90;;;;;;5024379;28;20049;-68
2024/01/23 01:00:14;;;;;;;1.08;1.08;;;6.80;99.90;;;;;;5039223;28;20053;-67
2024/01/23 01:02:39;;;;;;;0.80;0.77;;;6.80;99.90;;;;;;5025154;28;20060;-68
2024/01/23 01:05:05;;;;;;;0.20;0.20;;;6.80;99.90;;;;;;5019831;28;20390;-68
2024/01/23 01:07:30;;;;;;;1.65;1.55;;;6.80;99.90;;;;;;5017476;28;20797;-67
2024/01/23 01:09:56;;;;;;;0.65;0.65;;;6.70;99.90;;;;;;5019142;28;20041;-68
2024/01/23 01:12:22;;;;;;;0.10;0.10;;;6.70;99.90;;;;;;5020618;28;20049;-67
2024/01/23 01:14:47;;;;;;;1.42;1.30;;;6.70;99.90;;;;;;5023707;28;20477;-67
2024/01/23 01:17:13;;;;;;;2.20;0.77;;;6.70;99.90;;;;;;5020872;28;20057;-67
2024/01/23 01:19:39;;;;;;;0.10;0.10;;;6.70;99.90;;;;;;5026959;28;21408;-68
2024/01/23 01:22:05;;;;;;;0.38;0.38;;;6.70;99.90;;;;;;5022614;28;20045;-67
2024/01/23 01:24:31;;;;;;;1.92;1.17;;;6.70;99.90;;;;;;5025423;28;20215;-67
2024/01/23 01:26:57;;;;;;;0.10;0.10;;;6.60;99.90;;;;;;5026356;28;20493;-67
2024/01/23 01:29:23;;;;;;;0.00;0.00;;;6.60;99.90;;;;;;5015958;28;20053;-67
2024/01/23 01:31:49;;;;;;;0.25;0.25;;;6.60;99.90;;;;;;5027852;28;20672;-67
2024/01/23 01:34:14;;;;;;;0.10;0.10;;;6.60;99.90;;;;;;5025821;28;20053;-67
2024/01/23 01:36:40;;;;;;;18.20;2.17;;;6.60;99.90;;;;;;5022877;28;20034;-67
2024/01/23 01:39:06;;;;;;;0.15;0.15;;;6.60;99.90;;;;;;5027346;28;20057;-68
2024/01/23 01:41:32;;;;;;;4.47;2.92;;;6.60;99.90;;;;;;5018762;28;20164;-67
2024/01/23 01:43:58;;;;;;;4.88;2.13;;;6.60;99.90;;;;;;5021942;28;20133;-67
2024/01/23 01:46:26;;;;;;;0.77;0.77;;;6.60;99.90;;;;;;5026934;28;20044;-67
2024/01/23 01:48:52;;;;;;;0.10;0.10;;;6.60;99.90;;;;;;5028027;28;20124;-67
2024/01/23 01:51:21;;;;;;;0.20;0.20;;;6.60;99.90;;;;;;5019511;28;20087;-67
2024/01/23 01:53:48;;;;;;;0.10;0.10;;;6.60;99.90;;;;;;5025250;28;20053;-68
2024/01/23 01:56:14;;;;;;;0.10;0.10;;;6.60;99.90;;;;;;5028289;28;20048;-67
2024/01/23 01:58:41;;;;;;;0.10;0.10;;;6.60;99.90;;;;;;5028917;28;20037;-67
2024/01/23 02:01:06;;;;;;;0.10;0.10;;;6.60;99.90;;;;;;5015338;28;20048;-68
2024/01/23 02:03:32;;;;;;;0.08;0.08;;;6.60;99.90;;;;;;5022683;28;20038;-67
2024/01/23 02:06:00;;;;;;;0.20;0.20;;;6.70;99.90;;;;;;5021845;28;20041;-67
2024/01/23 02:08:27;;;;;;;2.65;2.05;;;6.60;99.90;;;;;;5019901;28;20515;-67
2024/01/23 02:10:53;;;;;;;0.10;0.10;;;6.70;99.90;;;;;;5042121;28;20516;-67
2024/01/23 02:13:19;;;;;;;0.10;0.10;;;6.70;99.90;;;;;;5026250;28;20136;-67
2024/01/23 02:15:44;;;;;;;0.30;0.30;;;6.70;99.90;;;;;;5020301;28;20477;-68
2024/01/23 02:18:10;;;;;;;0.10;0.10;;;6.70;99.90;;;;;;5021456;28;20114;-67
2024/01/23 02:20:36;;;;;;;0.80;0.63;;;6.70;99.90;;;;;;5027797;28;20041;-67
2024/01/23 02:23:01;;;;;;;22.83;1.58;;;6.60;99.90;;;;;;5026812;28;20084;-67
2024/01/23 02:25:27;;;;;;;0.10;0.10;;;6.70;99.90;;;;;;5016387;28;20069;-67
2024/01/23 02:27:53;;;;;;;0.10;0.10;;;6.70;99.90;;;;;;5023338;28;20144;-68
2024/01/23 02:30:19;;;;;;;0.10;0.10;;;6.60;99.90;;;;;;5028460;28;20069;-67
2024/01/23 02:32:45;;;;;;;5.03;0.82;;;6.70;99.90;;;;;;5023557;28;20727;-67
2024/01/23 02:35:11;;;;;;;5.50;1.48;;;6.70;99.90;;;;;;5020440;28;20088;-68
2024/01/23 02:37:37;;;;;;;0.10;0.10;;;6.80;99.90;;;;;;5042554;28;20061;-67
2024/01/23 02:40:03;;;;;;;0.43;0.43;;;6.80;99.90;;;;;;5026521;28;20085;-67
2024/01/23 02:42:29;;;;;;;0.95;0.95;;;6.80;99.90;;;;;;5018127;28;20081;-68
2024/01/23 02:44:54;;;;;;;0.10;0.10;;;6.90;99.90;;;;;;5015930;28;20049;-67
2024/01/23 02:47:23;;;;;;;2.45;2.08;;;6.90;99.90;;;;;;5024866;28;20069;-67
2024/01/23 02:49:49;;;;;;;0.32;0.32;;;6.90;99.90;;;;;;5026531;28;20099;-68
2024/01/23 02:52:14;;;;;;;12.50;1.75;;;6.90;99.90;;;;;;5025541;28;20046;-67
2024/01/23 02:54:40;;;;;;;0.77;0.77;;;7.00;99.90;;;;;;5023317;28;20037;-67
2024/01/23 02:57:06;;;;;;;0.75;0.75;;;7.00;99.90;;;;;;5018594;28;20037;-67
2024/01/23 02:59:32;;;;;;;15.77;2.47;;;7.10;99.90;;;;;;5019875;28;20111;-67
2024/01/23 03:01:57;;;;;;;0.10;0.10;;;7.20;99.90;;;;;;5027794;28;20052;-68
2024/01/23 03:04:23;;;;;;;0.25;0.25;;;7.20;99.90;;;;;;5013205;28;20049;-67
2024/01/23 03:06:48;;;;;;;0.52;0.50;;;7.20;99.90;;;;;;5024345;28;20092;-67
2024/01/23 03:09:14;;;;;;;0.30;0.30;;;7.20;99.90;;;;;;5028001;28;20535;-68
2024/01/23 03:11:40;;;;;;;0.65;0.65;;;7.20;99.90;;;;;;5027466;28;20049;-67
2024/01/23 03:14:06;;;;;;;0.10;0.10;;;7.20;99.90;;;;;;5016116;28;20046;-67
2024/01/23 03:16:32;;;;;;;0.10;0.10;;;7.20;99.90;;;;;;5024658;28;20041;-68
2024/01/23 03:18:57;;;;;;;0.20;0.20;;;7.20;99.90;;;;;;5027248;28;20060;-67
2024/01/23 03:21:23;;;;;;;0.10;0.10;;;7.30;99.90;;;;;;5026167;28;20040;-67
2024/01/23 03:23:49;;;;;;;1.10;1.00;;;7.30;99.90;;;;;;5018391;28;20049;-67
2024/01/23 03:26:14;;;;;;;0.10;0.10;;;7.20;99.90;;;;;;5026756;28;20049;-68
2024/01/23 03:28:40;;;;;;;0.32;0.32;;;7.20;99.90;;;;;;5025790;28;20071;-67
2024/01/23 03:31:06;;;;;;;0.10;0.10;;;7.20;99.90;;;;;;5016069;28;20676;-67
2024/01/23 03:33:32;;;;;;;0.20;0.20;;;7.20;99.90;;;;;;5027054;28;20128;-67
2024/01/23 03:35:58;;;;;;;5.93;3.60;;;7.30;99.90;;;;;;5025361;28;20109;-67
2024/01/23 03:38:24;;;;;;;0.38;0.38;;;7.30;99.90;;;;;;5020285;28;20072;-67
2024/01/23 03:40:49;;;;;;;1.65;1.50;;;7.30;99.90;;;;;;5020947;28;20061;-67
2024/01/23 03:43:15;;;;;;;21.55;1.85;;;7.30;99.90;;;;;;5018260;28;20107;-67
2024/01/23 03:45:41;;;;;;;0.10;0.10;;;7.30;99.90;;;;;;5026786;28;20657;-68
2024/01/23 03:48:06;;;;;;;0.10;0.10;;;7.30;99.90;;;;;;5020555;28;20045;-67
2024/01/23 03:50:32;;;;;;;5.68;0.73;;;7.40;99.90;;;;;;5027407;28;20063;-67
2024/01/23 03:52:58;;;;;;;1.75;1.65;;;7.30;99.90;;;;;;5030676;28;20397;-67
2024/01/23 03:55:24;;;;;;;0.25;0.25;;;7.40;99.90;;;;;;5019985;28;20093;-67
2024/01/23 03:57:50;;;;;;;1.80;1.65;;;7.40;99.90;;;;;;5030821;28;20057;-67
2024/01/23 04:00:15;;;;;;;0.47;0.45;;;7.40;99.90;;;;;;5023510;28;20382;-68
2024/01/23 04:02:41;;;;;;;2.45;1.95;;;7.40;99.90;;;;;;5020547;28;20041;-68
2024/01/23 04:05:07;;;;;;;0.10;0.10;;;7.40;99.90;;;;;;5031111;28;20038;-67
2024/01/23 04:07:34;;;;;;;0.65;0.65;;;7.40;99.90;;;;;;5024311;28;20597;-67
2024/01/23 04:10:04;;;;;;;0.80;0.75;;;7.40;99.90;;;;;;5017347;28;20053;-67
2024/01/23 04:12:30;;;;;;;0.10;0.10;;;7.40;99.90;;;;;;5021468;28;20529;-68
2024/01/23 04:14:55;;;;;;;0.10;0.10;;;7.40;99.90;;;;;;5026477;28;20038;-67
2024/01/23 04:17:21;;;;;;;0.30;0.30;;;7.40;99.90;;;;;;5029226;28;20045;-68
2024/01/23 04:19:46;;;;;;;0.38;0.38;;;7.40;99.90;;;;;;5023733;28;20120;-67
2024/01/23 04:22:12;;;;;;;2.40;2.05;;;7.40;99.90;;;;;;5023039;28;20038;-68
2024/01/23 04:24:38;;;;;;;0.20;0.20;;;7.40;99.90;;;;;;5024989;28;20868;-67
2024/01/23 04:27:07;;;;;;;0.63;0.63;;;7.40;99.90;;;;;;5027905;28;20042;-68
2024/01/23 04:29:33;;;;;;;0.75;0.75;;;7.40;99.90;;;;;;5028732;28;20029;-67
2024/01/23 04:31:58;;;;;;;3.55;2.17;;;7.40;99.90;;;;;;5025514;28;20045;-68
2024/01/23 04:34:24;;;;;;;2.30;2.10;;;7.50;99.90;;;;;;5029398;28;20405;-68
2024/01/23 04:36:49;;;;;;;0.10;0.10;;;7.40;99.90;;;;;;5019561;28;20251;-67
2024/01/23 04:39:18;;;;;;;2.13;1.95;;;7.40;99.90;;;;;;5017308;28;20049;-67
2024/01/23 04:41:45;;;;;;;1.02;0.95;;;7.40;99.90;;;;;;5033955;28;20129;-67
2024/01/23 04:44:10;;;;;;;0.10;0.10;;;7.40;99.90;;;;;;5023166;28;20124;-67
2024/01/23 04:46:36;;;;;;;0.10;0.10;;;7.40;99.90;;;;;;5030043;28;20045;-67
2024/01/23 04:49:02;;;;;;;0.20;0.20;;;7.40;99.90;;;;;;5025116;28;20045;-67
2024/01/23 04:51:27;;;;;;;0.10;0.10;;;7.40;99.90;;;;;;5024412;28;20056;-68
2024/01/23 04:53:54;;;;;;;0.43;0.43;;;7.30;99.90;;;;;;5029192;28;20099;-67
2024/01/23 04:56:19;;;;;;;0.55;0.55;;;7.30;99.90;;;;;;5022745;28;20801;-67
2024/01/23 04:58:45;;;;;;;0.60;0.60;;;7.20;99.90;;;;;;5027287;28;20056;-67
2024/01/23 05:01:11;;;;;;;0.55;0.55;;;7.20;99.90;;;;;;5031657;28;20047;-67
2024/01/23 05:03:37;;;;;;;0.10;0.10;;;7.20;99.90;;;;;;5020688;28;20115;-67
2024/01/23 05:06:04;;;;;;;0.10;0.10;;;7.10;99.90;;;;;;5040350;28;20045;-67
2024/01/23 05:08:30;;;;;;;0.73;0.73;;;7.10;99.90;;;;;;5025673;28;20405;-67
2024/01/23 05:10:56;;;;;;;0.77;0.77;;;7.10;99.90;;;;;;5022061;28;20034;-67
2024/01/23 05:13:22;;;;;;;2.50;0.88;;;7.00;99.90;;;;;;5023941;28;20052;-67
2024/01/23 05:15:47;;;;;;;0.85;0.85;;;7.00;99.90;;;;;;5019781;28;20050;-67
2024/01/23 05:18:13;;;;;;;0.10;0.10;;;7.00;99.90;;;;;;5028133;28;20053;-67
2024/01/23 05:20:39;;;;;;;0.52;0.52;;;7.00;99.90;;;;;;5032810;28;20052;-68
2024/01/23 05:23:05;;;;;;;0.47;0.47;;;6.90;99.90;;;;;;5026770;28;20464;-67
2024/01/23 05:25:30;;;;;;;3.13;2.85;;;6.90;99.90;;;;;;5028509;28;20052;-67
2024/01/23 05:27:56;;;;;;;0.30;0.30;;;6.90;99.90;;;;;;5021937;28;20049;-67
2024/01/23 05:30:23;;;;;;;0.68;0.60;;;6.90;99.90;;;;;;5027837;28;20084;-67
2024/01/23 05:32:49;;;;;;;2.75;2.28;;;6.90;99.90;;;;;;5013608;28;20057;-67
2024/01/23 05:35:15;;;;;;;1.58;1.50;;;6.90;99.90;;;;;;5017752;28;20153;-67
2024/01/23 05:37:40;;;;;;;0.70;0.70;;;6.90;99.90;;;;;;5025175;28;20476;-67
2024/01/23 05:40:11;;;;;;;0.10;0.10;;;6.90;99.90;;;;;;5028451;28;20057;-67
2024/01/23 05:42:36;;;;;;;0.10;0.10;;;6.90;99.90;;;;;;5026630;28;20080;-67
2024/01/23 05:45:03;;;;;;;0.10;0.10;;;6.90;99.90;;;;;;5019700;28;20096;-67
2024/01/23 05:47:29;;;;;;;0.08;0.08;;;6.90;99.90;;;;;;5026809;28;20049;-68
2024/01/23 05:49:55;;;;;;;2.63;2.08;;;6.90;99.90;;;;;;5022019;28;20052;-67
2024/01/23 05:52:20;;;;;;;7.90;3.22;;;6.90;99.90;;;;;;5018240;28;20045;-67
2024/01/23 05:54:46;;;;;;;0.28;0.28;;;6.90;99.90;;;;;;5023562;28;20045;-67
2024/01/23 05:57:11;;;;;;;0.10;0.10;;;6.90;99.90;;;;;;5020073;28;20033;-67
2024/01/23 05:59:37;;;;;;;0.17;0.17;;;6.80;99.90;;;;;;5025696;28;20042;-67
2024/01/23 06:02:04;;;;;;;0.20;0.20;;;6.80;99.90;;;;;;5027982;28;20068;-67
2024/01/23 06:04:30;;;;;;;0.43;0.43;;;6.90;99.90;;;;;;5018975;28;20055;-67
2024/01/23 06:06:56;;;;;;;2.40;2.20;;;6.90;99.90;;;;;;5023715;28;20054;-67
2024/01/23 06:09:21;;;;;;;1.85;1.25;;;6.80;99.90;;;;;;5027851;28;20052;-67
2024/01/23 06:11:47;;;;;;;0.10;0.10;;;6.80;99.90;;;;;;5018539;28;20669;-67
2024/01/23 06:14:12;;;;;;;0.40;0.40;;;6.80;99.90;;;;;;5029213;28;20029;-67
2024/01/23 06:16:38;;;;;;;3.05;0.57;;;6.80;99.90;;;;;;5014317;28;20505;-67
2024/01/23 06:19:07;;;;;;;0.77;0.77;;;6.70;99.90;;;;;;5021011;28;20042;-67
2024/01/23 06:21:32;;;;;;;2.33;2.13;;;6.70;99.90;;;;;;5022778;28;20091;-67
2024/01/23 06:23:58;;;;;;;0.30;0.30;;;6.70;99.90;;;;;;5024081;28;20053;-67
2024/01/23 06:26:24;;;;;;;0.20;0.20;;;6.70;99.90;;;;;;5040459;28;20037;-67
2024/01/23 06:28:49;;;;;;;0.45;0.45;;;6.70;99.90;;;;;;5014802;28;20052;-67
2024/01/23 06:31:15;;;;;;;6.75;0.93;;;6.70;99.90;;;;;;5022014;28;20132;-67
2024/01/23 06:33:40;;;;;;;0.10;0.10;;;6.60;99.90;;;;;;5027480;28;20052;-67
2024/01/23 06:36:06;;;;;;;0.35;0.35;;;6.70;99.90;;;;;;5021225;28;20041;-67
2024/01/23 06:38:33;;;;;;;0.68;0.68;;;6.60;99.90;;;;;;5026593;28;20049;-67
2024/01/23 06:40:58;;;;;;;5.57;2.67;;;6.60;99.90;;;;;;5019855;28;20057;-67
2024/01/23 06:43:24;;;;;;;1.38;1.27;;;6.50;99.90;;;;;;5025648;28;20444;-67
2024/01/23 06:45:49;;;;;;;0.52;0.52;;;6.50;99.90;;;;;;5022853;28;20038;-67
2024/01/23 06:48:15;;;;;;;0.80;0.73;;;6.60;99.90;;;;;;5022754;28;20076;-67
2024/01/23 06:50:41;;;;;;;8.75;4.18;;;6.60;99.90;;;;;;5024574;28;20112;-67
2024/01/23 06:53:07;;;;;;;7.53;3.25;;;6.50;99.90;;;;;;5023364;28;20045;-67
2024/01/23 06:55:32;;;;;;;0.10;0.10;;;6.50;99.90;;;;;;5020024;28;20041;-67
2024/01/23 06:57:58;;;;;;;0.10;0.10;;;6.50;99.90;;;;;;5022284;28;20497;-67
2024/01/23 07:00:23;;;;;;;0.10;0.10;;;6.50;99.90;;;;;;5025607;28;20447;-65
2024/01/23 07:02:49;;;;;;;0.13;0.13;;;6.50;99.90;;;;;;5015344;28;20049;-67
2024/01/23 07:05:14;;;;;;;0.20;0.20;;;6.50;99.90;;;;;;5021554;28;20065;-67
2024/01/23 07:07:40;;;;;;;1.60;1.50;;;6.50;99.90;;;;;;5025663;28;20045;-67
2024/01/23 07:10:06;;;;;;;0.15;0.15;;;6.40;99.90;;;;;;5021350;28;20056;-67
2024/01/23 07:12:31;;;;;;;1.08;0.80;;;6.40;99.90;;;;;;5013615;28;20057;-67
2024/01/23 07:14:57;;;;;;;0.10;0.10;;;6.40;99.90;;;;;;5022401;28;20052;-67
2024/01/23 07:17:22;;;;;;;4.72;1.50;;;6.40;99.90;;;;;;5018185;28;20069;-67
2024/01/23 07:19:48;;;;;;;0.10;0.10;;;6.40;99.90;;;;;;5035630;28;20049;-67
2024/01/23 07:22:13;;;;;;;1.92;1.85;;;6.30;99.90;;;;;;5020908;28;20045;-67
2024/01/23 07:24:39;;;;;;;0.73;0.73;;;6.30;99.90;;;;;;5025615;28;20107;-67
2024/01/23 07:27:04;;;;;;;4.07;2.53;;;6.30;99.90;;;;;;5031353;28;20465;-67
2024/01/23 07:29:30;;;;;;;0.10;0.10;;;6.30;99.90;;;;;;5031542;28;20045;-67
2024/01/23 07:31:57;;;;;;;0.10;0.10;;;6.30;99.90;;;;;;5018442;28;20705;-67
2024/01/23 07:34:22;;;;;;;5.15;2.63;;;6.30;99.90;;;;;;5018494;28;20056;-67
2024/01/23 07:36:48;;;;;;;3.92;1.88;;;6.30;99.90;;;;;;5029001;28;20560;-67
2024/01/23 07:39:14;;;;;;;0.13;0.13;;;6.30;99.90;;;;;;5023890;28;20072;-67
2024/01/23 07:41:41;;;;;;;3.38;2.25;;;6.30;99.90;;;;;;5029405;28;20053;-67
2024/01/23 07:44:07;;;;;;;0.85;0.85;;;6.30;99.90;;;;;;5029684;28;20048;-67
2024/01/23 07:46:33;;;;;;;1.52;1.45;;;6.30;99.90;;;;;;5020934;28;20469;-67
2024/01/23 07:48:59;;;;;;;0.10;0.10;;;6.30;99.90;;;;;;5026253;28;20053;-68
2024/01/23 07:51:24;;;;;;;0.08;0.08;;;6.30;99.90;;;;;;5022294;28;20038;-67
2024/01/23 07:53:50;;;;;;;1.00;1.00;;;6.40;99.90;;;;;;5021127;28;20045;-67
2024/01/23 07:56:16;;;;;;;1.30;1.20;;;6.40;99.90;;;;;;5021365;28;20064;-67
2024/01/23 07:58:42;;;;;;;0.10;0.10;;;6.50;99.90;;;;;;5025331;28;20184;-67
2024/01/23 08:01:07;;;;;;;0.10;0.10;;;6.50;99.90;;;;;;5021903;28;20048;-66
2024/01/23 08:03:33;;;;;;;0.60;0.60;;;6.40;99.90;;;;;;5044106;28;20053;-67
2024/01/23 08:05:59;;;;;;;0.10;0.10;;;6.50;99.90;;;;;;5020750;28;20582;-67
2024/01/23 08:08:24;;;;;;;0.10;0.10;;;6.50;99.90;;;;;;5030558;28;20041;-66
2024/01/23 08:10:51;;;;;;;0.75;0.75;;;6.50;99.90;;;;;;5029201;28;20465;-67
2024/01/23 08:13:20;;;;;;;0.38;0.38;;;6.40;99.90;;;;;;5015263;28;20045;-67
2024/01/23 08:15:45;;;;;;;0.10;0.10;;;6.40;99.90;;;;;;5022676;28;20053;-67
2024/01/23 08:18:13;;;;;;;0.75;0.75;;;6.40;99.90;;;;;;5025937;28;20702;-67
2024/01/23 08:20:38;;;;;;;0.20;0.20;;;6.40;99.90;;;;;;5032286;28;20041;-66
2024/01/23 08:23:04;;;;;;;32.17;4.47;;;6.40;99.90;;;;;;5028103;28;20503;-67
2024/01/23 08:25:31;;;;;;;0.10;0.10;;;6.40;99.90;;;;;;5032048;28;20041;-66
2024/01/23 08:27:56;;;;;;;4.03;2.85;;;6.40;99.90;;;;;;5018037;28;20045;-67
2024/01/23 08:30:22;;;;;;;1.48;1.20;;;6.40;99.90;;;;;;5030059;28;20132;-67
2024/01/23 08:32:47;;;;;;;0.10;0.10;;;6.40;99.90;;;;;;5022575;28;20120;-67
2024/01/23 08:35:15;;;;;;;2.00;1.45;;;6.40;99.90;;;;;;5024859;28;20049;-67
2024/01/23 08:37:40;;;;;;;1.45;1.35;;;6.40;99.90;;;;;;5024701;28;20053;-67
2024/01/23 08:40:07;;;;;;;7.22;1.85;;;6.40;99.90;;;;;;5026469;28;20060;-67
2024/01/23 08:42:33;;;;;;;0.10;0.10;;;6.40;99.90;;;;;;5030222;28;20049;-67
2024/01/23 08:44:58;;;;;;;1.00;0.95;;;6.40;99.90;;;;;;5026175;28;20037;-67
2024/01/23 08:47:24;;;;;;;2.45;1.35;;;6.40;99.90;;;;;;5020888;28;20057;-67
2024/01/23 08:49:49;;;;;;;0.15;0.15;;;6.50;99.90;;;;;;5026474;28;20045;-67
2024/01/23 08:52:16;;;;;;;0.73;0.73;;;6.50;99.90;;;;;;5023823;28;20435;-68
2024/01/23 08:54:44;;;;;;;0.65;0.65;;;6.50;99.90;;;;;;5027016;28;20041;-67
2024/01/23 08:57:10;;;;;;;1.08;1.08;;;6.50;99.90;;;;;;5015112;28;20069;-67
2024/01/23 08:59:40;;;;;;;0.10;0.10;;;6.50;99.90;;;;;;5027674;28;20111;-67
2024/01/23 09:02:06;;;;;;;0.75;0.73;;;6.40;99.90;;;;;;5030937;28;20045;-67
2024/01/23 09:04:31;;;;;;;0.40;0.40;;;6.50;99.90;;;;;;5024882;28;20064;-67
2024/01/23 09:06:57;;;;;;;0.65;0.65;;;6.50;99.90;;;;;;5039069;28;20041;-67
2024/01/23 09:09:23;;;;;;;0.68;0.68;;;6.50;99.90;;;;;;5026899;28;20056;-67
2024/01/23 09:11:49;;;;;;;0.52;0.52;;;6.60;99.90;;;;;;5014469;28;20060;-67
2024/01/23 09:14:14;;;;;;;0.35;0.35;;;6.60;99.90;;;;;;5022519;28;20045;-67
2024/01/23 09:16:40;;;;;;;0.10;0.10;;;6.60;99.90;;;;;;5017720;28;20050;-67
2024/01/23 09:19:06;;;;;;;0.28;0.28;;;6.70;99.90;;;;;;5024650;28;20136;-67
2024/01/23 09:21:31;;;;;;;4.38;2.45;;;6.70;99.90;;;;;;5026971;28;20052;-67
2024/01/23 09:23:57;;;;;;;0.10;0.10;;;6.70;99.90;;;;;;5030207;28;20045;-67
2024/01/23 09:26:23;;;;;;;1.98;1.55;;;6.80;99.90;;;;;;5017942;28;20053;-67
2024/01/23 09:28:49;;;;;;;0.17;0.17;;;6.90;99.90;;;;;;5022621;28;20049;-67
2024/01/23 09:31:14;;;;;;;6.22;3.30;;;7.00;99.90;;;;;;5018730;28;20069;-67
2024/01/23 09:33:40;;;;;;;0.95;0.95;;;7.00;99.90;;;;;;5024767;28;20135;-67
2024/01/23 09:36:05;;;;;;;0.10;0.10;;;7.00;99.90;;;;;;5031048;28;20049;-67
2024/01/23 09:38:31;;;;;;;0.43;0.43;;;7.00;99.90;;;;;;5027383;28;20104;-67
2024/01/23 09:40:57;;;;;;;0.20;0.20;;;7.00;99.90;;;;;;5016101;28;20061;-67
2024/01/23 09:43:24;;;;;;;1.45;1.35;;;7.00;99.90;;;;;;5026764;28;20052;-67
2024/01/23 09:45:51;;;;;;;1.02;1.02;;;7.00;99.90;;;;;;5019480;28;20049;-67
2024/01/23 09:48:17;;;;;;;0.40;0.40;;;7.00;99.90;;;;;;5013108;28;20046;-67
2024/01/23 09:50:45;;;;;;;0.47;0.47;;;7.10;99.90;;;;;;5021820;28;20084;-67
2024/01/23 09:53:11;;;;;;;0.65;0.57;;;7.20;99.90;;;;;;5029757;28;20072;-67
2024/01/23 09:55:38;;;;;;;0.98;0.98;;;7.20;99.90;;;;;;5020014;28;20041;-67
2024/01/23 09:58:04;;;;;;;1.40;1.35;;;7.30;99.90;;;;;;5016496;28;20037;-67
2024/01/23 10:00:30;;;;;;;0.10;0.10;;;7.30;99.90;;;;;;5024873;28;20137;-67
2024/01/23 10:02:56;;;;;;;0.13;0.13;;;7.30;99.90;;;;;;5012470;28;20551;-66
2024/01/23 10:05:22;;;;;;;16.63;4.85;;;7.40;99.90;;;;;;5023827;28;20041;-67
2024/01/23 10:07:48;;;;;;;2.72;1.10;;;7.40;99.90;;;;;;5028025;28;20077;-67
2024/01/23 10:10:17;;;;;;;9.35;1.00;;;7.40;99.90;;;;;;5021224;28;20095;-67
2024/01/23 10:12:47;;;;;;;0.28;0.28;;;7.50;99.90;;;;;;5024200;28;20030;-67
2024/01/23 10:15:16;;;;;;;1.90;1.80;;;7.50;99.90;;;;;;5023855;28;20052;-67
2024/01/23 10:17:44;;;;;;;0.73;0.73;;;7.60;99.90;;;;;;5028323;28;20050;-67
2024/01/23 10:20:09;;;;;;;0.30;0.30;;;7.60;99.90;;;;;;5025966;28;20045;-67
2024/01/23 10:22:35;;;;;;;1.58;1.55;;;7.60;99.90;;;;;;5023769;28;20440;-67
2024/01/23 10:25:32;;;;;;;1.00;1.00;;;7.60;99.90;;;;;;5021425;28;20060;-68
2024/01/23 10:27:56;;;;;;;0.10;0.10;;;7.70;99.90;;;;;;5016288;28;20587;-67
2024/01/23 10:30:22;;;;;;;36.47;1.77;;;7.80;99.90;;;;;;5020639;28;20041;-67
2024/01/23 10:32:47;;;;;;;0.15;0.15;;;7.90;99.90;;;;;;5020279;28;20088;-67
2024/01/23 10:35:14;;;;;;;1.98;1.40;;;8.00;99.90;;;;;;5013216;28;20049;-67
2024/01/23 10:37:40;;;;;;;0.30;0.30;;;8.00;99.90;;;;;;5017154;28;20065;-67
2024/01/23 10:40:11;;;;;;;0.25;0.25;;;8.10;99.90;;;;;;5021379;28;20576;-67
2024/01/23 10:42:38;;;;;;;8.18;3.60;;;8.10;99.90;;;;;;5023591;28;20037;-67
2024/01/23 10:45:06;;;;;;;0.90;0.90;;;8.20;99.90;;;;;;5027274;28;20049;-67
2024/01/23 10:47:31;;;;;;;2.55;2.08;;;8.20;99.90;;;;;;5014247;28;20525;-68
2024/01/23 10:49:57;;;;;;;0.32;0.32;;;8.20;99.90;;;;;;5027936;28;20112;-67
2024/01/23 10:52:27;;;;;;;0.75;0.75;;;8.30;99.90;;;;;;5018446;28;20421;-67
2024/01/23 10:54:53;;;;;;;0.45;0.45;;;8.40;99.90;;;;;;5024246;28;20077;-67
2024/01/23 10:57:24;;;;;;;0.90;0.90;;;8.50;99.90;;;;;;5027067;28;20041;-68
2024/01/23 10:59:51;;;;;;;0.25;0.25;;;8.50;99.90;;;;;;5027627;28;20045;-67
2024/01/23 11:02:37;;;;;;;0.50;0.50;;;8.60;99.90;;;;;;5019273;28;20123;-67
2024/01/23 11:05:03;;;;;;;0.40;0.40;;;8.60;99.90;;;;;;5030153;28;20069;-68
2024/01/23 11:07:51;;;;;;;1.05;1.05;;;8.60;99.90;;;;;;5025686;28;20046;-67
2024/01/23 11:10:31;;;;;;;0.57;0.50;;;8.60;99.90;;;;;;5022709;28;20045;-68
2024/01/23 11:13:11;;;;;;;0.10;0.10;;;8.60;99.90;;;;;;5021584;28;20049;-67
2024/01/23 11:15:37;;;;;;;1.38;1.23;;;8.60;99.90;;;;;;5032270;28;20037;-68
2024/01/23 11:18:32;;;;;;;2.10;1.95;;;8.60;99.90;;;;;;5022529;28;20083;-67
2024/01/23 11:21:04;;;;;;;13.25;4.50;;;8.60;99.90;;;;;;5031757;28;20053;-67
2024/01/23 11:23:33;;;;;;;0.10;0.10;;;8.50;99.90;;;;;;5027906;28;20041;-67
2024/01/23 11:26:22;;;;;;;0.20;0.20;;;8.40;99.90;;;;;;5023871;28;20050;-67
2024/01/23 11:28:53;;;;;;;0.38;0.38;;;8.40;99.90;;;;;;5017167;28;20140;-67
2024/01/23 11:31:23;;;;;;;0.10;0.10;;;8.40;99.90;;;;;;5029114;28;20489;-67
2024/01/23 11:33:53;;;;;;;0.10;0.10;;;8.40;99.90;;;;;;5025861;28;20061;-67
2024/01/23 11:36:23;;;;;;;0.63;0.63;;;8.40;99.90;;;;;;5030310;28;20037;-67
2024/01/23 11:38:55;;;;;;;0.38;0.38;;;8.40;99.90;;;;;;5029737;28;20049;-68
2024/01/23 11:41:27;;;;;;;0.10;0.10;;;8.50;99.90;;;;;;5025410;28;20048;-67
2024/01/23 11:44:04;;;;;;;0.10;0.10;;;8.60;99.90;;;;;;5019768;28;20119;-67
2024/01/23 11:46:34;;;;;;;0.10;0.10;;;8.60;99.90;;;;;;5019712;28;20405;-67
2024/01/23 11:49:00;;;;;;;6.97;3.50;;;8.50;99.90;;;;;;5031469;28;20477;-67
2024/01/23 11:51:28;;;;;;;0.10;0.10;;;8.60;99.90;;;;;;5019129;28;20045;-68
2024/01/23 11:54:00;;;;;;;0.10;0.10;;;8.50;99.90;;;;;;5025656;28;20067;-67
2024/01/23 11:56:29;;;;;;;0.93;0.93;;;8.60;99.90;;;;;;5031765;28;20551;-67
2024/01/23 11:58:58;;;;;;;0.10;0.10;;;8.60;99.90;;;;;;5032304;28;20485;-67
2024/01/23 12:01:27;;;;;;;0.77;0.55;;;8.70;99.90;;;;;;5023455;28;20405;-67
2024/01/23 12:03:54;;;;;;;0.93;0.65;;;8.70;99.90;;;;;;5030655;28;20053;-67
2024/01/23 12:06:21;;;;;;;0.60;0.60;;;8.60;99.90;;;;;;5029201;28;20087;-67
2024/01/23 12:08:46;;;;;;;2.25;2.13;;;8.80;99.90;;;;;;5023829;28;20072;-67
2024/01/23 12:11:17;;;;;;;2.20;1.50;;;8.90;99.90;;;;;;5024518;28;20041;-67
2024/01/23 12:13:50;;;;;;;6.60;2.45;;;9.00;99.90;;;;;;5019324;28;20045;-67
2024/01/23 12:16:17;;;;;;;0.10;0.10;;;9.10;99.90;;;;;;5020924;28;20371;-67
2024/01/23 12:18:44;;;;;;;0.82;0.82;;;9.10;99.90;;;;;;5031512;28;20324;-68
2024/01/23 12:21:11;;;;;;;3.50;2.05;;;9.20;99.90;;;;;;5021323;28;20041;-67
2024/01/23 12:23:37;;;;;;;1.52;1.42;;;9.30;99.90;;;;;;5023506;28;20041;-67
2024/01/23 12:26:04;;;;;;;0.10;0.10;;;9.30;99.90;;;;;;5020906;28;20449;-67
2024/01/23 12:28:31;;;;;;;0.10;0.10;;;9.40;99.90;;;;;;5015576;28;20041;-68
2024/01/23 12:30:57;;;;;;;1.70;1.60;;;9.30;99.90;;;;;;5014788;28;20084;-67
2024/01/23 12:33:25;;;;;;;0.63;0.63;;;9.30;99.90;;;;;;5027708;28;20132;-67
2024/01/23 12:35:51;;;;;;;0.65;0.60;;;9.10;99.90;;;;;;5027901;28;20124;-68
2024/01/23 12:38:18;;;;;;;2.33;2.15;;;9.10;99.90;;;;;;5022509;28;20595;-67
2024/01/23 12:40:44;;;;;;;0.10;0.10;;;9.00;99.90;;;;;;5021440;28;20063;-67
2024/01/23 12:43:10;;;;;;;2.08;1.77;;;8.90;99.90;;;;;;5028262;28;20054;-67
2024/01/23 12:45:36;;;;;;;0.30;0.30;;;8.90;99.90;;;;;;5045486;28;20057;-67
2024/01/23 12:48:02;;;;;;;0.10;0.10;;;8.90;99.90;;;;;;5025858;28;20053;-67
2024/01/23 12:50:29;;;;;;;0.20;0.20;;;8.80;99.90;;;;;;5023039;28;20048;-67
2024/01/23 12:52:57;;;;;;;1.67;1.58;;;8.70;99.90;;;;;;5023491;28;20401;-67
2024/01/23 12:55:32;;;;;;;0.10;0.10;;;8.70;99.90;;;;;;5028427;28;20048;-67